Time;durP1;ratioP1;P1;durP2;ratioP2;P2;SDS_P1;SDS_P2;PMS_P1;PMS_P2;Temp;Humidity;BMP_temperature;BMP_pressure;BME280_temperature;BME280_humidity;BME280_pressure;Samples;Min_cycle;Max_cycle;Signal;HPM_P1;HPM_P2
2021/04/16 00:00:13;;;;;;;3.53;1.70;;;;;;;18.61;48.03;102570.78;489217;28;1250;-64
2021/04/16 00:00:32;;;;;;;3.47;1.65;;;;;;;18.61;48.36;102569.91;487075;28;67366;-65
2021/04/16 00:00:49;;;;;;;3.05;1.55;;;;;;;18.60;47.93;102569.06;487821;28;42831;-65
2021/04/16 00:01:03;;;;;;;3.20;1.60;;;;;;;18.61;48.15;102567.22;489362;28;924;-65
2021/04/16 00:01:18;;;;;;;3.47;1.70;;;;;;;18.60;48.17;102571.78;489352;28;969;-65
2021/04/16 00:01:32;;;;;;;3.75;1.58;;;;;;;18.60;48.05;102571.78;489210;28;882;-65
2021/04/16 00:01:47;;;;;;;3.13;1.40;;;;;;;18.60;48.32;102566.34;489394;28;980;-65
2021/04/16 00:02:01;;;;;;;3.63;1.35;;;;;;;18.60;48.43;102571.78;489165;28;1242;-65
2021/04/16 00:02:16;;;;;;;4.67;1.47;;;;;;;18.61;48.23;102567.22;489256;28;807;-64
2021/04/16 00:02:30;;;;;;;3.95;1.50;;;;;;;18.61;48.33;102570.78;489421;28;1051;-64
2021/04/16 00:02:44;;;;;;;4.57;1.47;;;;;;;18.61;48.21;102573.50;489468;28;898;-65
2021/04/16 00:02:59;;;;;;;4.60;1.50;;;;;;;18.60;47.95;102569.06;489346;28;1025;-64
2021/04/16 00:03:14;;;;;;;3.60;1.50;;;;;;;18.60;48.41;102571.78;489185;28;932;-64
2021/04/16 00:03:28;;;;;;;3.33;1.50;;;;;;;18.60;48.41;102571.78;489259;28;940;-64
2021/04/16 00:03:43;;;;;;;3.88;1.58;;;;;;;18.61;48.46;102572.63;489205;28;1219;-64
2021/04/16 00:03:57;;;;;;;4.40;1.60;;;;;;;18.60;48.49;102574.50;488991;28;1377;-64
2021/04/16 00:04:12;;;;;;;4.57;1.70;;;;;;;18.59;48.59;102570.06;488827;28;803;-64
2021/04/16 00:04:26;;;;;;;4.13;1.70;;;;;;;18.60;48.43;102569.06;489119;28;811;-64
2021/04/16 00:04:40;;;;;;;4.40;1.60;;;;;;;18.60;48.68;102571.78;488855;28;1182;-65
2021/04/16 00:04:55;;;;;;;4.13;1.60;;;;;;;18.60;48.44;102576.34;489225;28;949;-64
2021/04/16 00:05:10;;;;;;;4.30;1.60;;;;;;;18.60;48.71;102570.91;489185;28;890;-64
2021/04/16 00:05:24;;;;;;;4.13;1.42;;;;;;;18.60;48.33;102571.78;488940;28;1365;-64
2021/04/16 00:05:40;;;;;;;4.07;1.50;;;;;;;18.59;48.28;102567.34;488569;28;996;-64
2021/04/16 00:05:55;;;;;;;5.18;1.60;;;;;;;18.60;48.31;102573.63;489338;28;1971;-65
2021/04/16 00:06:10;;;;;;;4.50;1.60;;;;;;;18.59;48.71;102575.50;488969;28;990;-64
2021/04/16 00:06:24;;;;;;;3.33;1.50;;;;;;;18.59;48.35;102567.34;488460;28;797;-64
2021/04/16 00:06:39;;;;;;;3.80;1.40;;;;;;;18.60;48.28;102577.19;487477;28;842;-64
2021/04/16 00:06:53;;;;;;;3.47;1.40;;;;;;;18.59;48.37;102571.88;487455;28;1005;-65
2021/04/16 00:07:07;;;;;;;2.63;1.50;;;;;;;18.59;48.69;102567.34;488818;28;1279;-63
2021/04/16 00:07:22;;;;;;;4.22;1.50;;;;;;;18.59;48.51;102570.06;489411;28;908;-64
2021/04/16 00:07:36;;;;;;;4.27;1.60;;;;;;;18.59;48.60;102569.19;489168;28;1043;-64
2021/04/16 00:07:51;;;;;;;3.08;1.60;;;;;;;18.59;48.72;102572.78;489375;28;910;-64
2021/04/16 00:08:12;;;;;;;3.80;1.58;;;;;;;18.59;48.36;102571.88;487954;28;870;-64
2021/04/16 00:08:30;;;;;;;3.60;1.50;;;;;;;18.59;48.38;102580.03;485224;28;65747;-64
2021/04/16 00:08:44;;;;;;;3.58;1.60;;;;;;;18.59;48.41;102577.31;487618;28;20385;-64
2021/04/16 00:08:59;;;;;;;3.53;1.60;;;;;;;18.59;48.45;102566.47;489266;28;893;-64
2021/04/16 00:09:14;;;;;;;4.18;1.65;;;;;;;18.59;48.87;102575.50;489328;28;898;-64
2021/04/16 00:09:29;;;;;;;4.33;1.67;;;;;;;18.59;48.75;102577.31;489459;28;862;-64
2021/04/16 00:09:43;;;;;;;4.70;1.57;;;;;;;18.59;48.44;102577.31;489120;28;850;-64
2021/04/16 00:09:59;;;;;;;5.07;1.52;;;;;;;18.58;48.57;102576.47;489437;28;874;-64
2021/04/16 00:10:22;;;;;;;4.32;1.70;;;;;;;18.58;48.68;102578.31;489279;28;984;-64
2021/04/16 00:10:41;;;;;;;3.45;1.83;;;;;;;18.58;48.84;102572.88;485065;28;65982;-64
2021/04/16 00:11:15;;;;;;;3.25;1.73;;;;;;;18.58;48.66;102573.75;485184;28;66670;-64
2021/04/16 00:11:30;;;;;;;3.38;1.60;;;;;;;18.57;48.79;102577.47;485186;28;65041;-64
2021/04/16 00:11:44;;;;;;;2.92;1.60;;;;;;;18.58;48.89;102575.59;486961;28;886;-64
2021/04/16 00:11:59;;;;;;;3.37;1.57;;;;;;;18.58;49.01;102571.03;487516;28;969;-64
2021/04/16 00:12:13;;;;;;;3.58;1.60;;;;;;;18.58;48.65;102573.75;488733;28;1325;-64
2021/04/16 00:12:28;;;;;;;3.60;1.60;;;;;;;18.58;48.68;102572.88;489309;28;978;-64
2021/04/16 00:12:43;;;;;;;4.82;1.60;;;;;;;18.57;48.81;102572.03;489402;28;819;-64
2021/04/16 00:12:58;;;;;;;4.97;1.60;;;;;;;18.58;48.74;102568.31;489119;28;1281;-64
2021/04/16 00:13:17;;;;;;;4.32;1.70;;;;;;;18.57;48.50;102574.75;489296;28;878;-64
2021/04/16 00:13:32;;;;;;;4.32;1.63;;;;;;;18.59;48.58;102571.88;487899;28;44500;-65
2021/04/16 00:13:47;;;;;;;4.85;1.58;;;;;;;18.59;48.73;102580.03;488984;28;1049;-65
2021/04/16 00:14:02;;;;;;;5.53;1.63;;;;;;;18.58;48.77;102571.03;489335;28;914;-65
2021/04/16 00:14:18;;;;;;;5.22;1.63;;;;;;;18.59;48.79;102571.88;489339;28;1110;-65
2021/04/16 00:14:34;;;;;;;3.47;1.58;;;;;;;18.58;49.01;102572.88;489171;28;1005;-65
2021/04/16 00:14:48;;;;;;;3.30;1.40;;;;;;;18.59;48.90;102569.19;489407;28;802;-65
2021/04/16 00:15:08;;;;;;;3.80;1.50;;;;;;;18.58;48.71;102567.47;489319;28;934;-65
2021/04/16 00:15:24;;;;;;;3.60;1.50;;;;;;;18.58;49.38;102572.88;487568;28;41541;-65
2021/04/16 00:15:41;;;;;;;4.68;1.58;;;;;;;18.58;48.91;102570.19;489308;28;1274;-65
2021/04/16 00:15:56;;;;;;;5.13;1.60;;;;;;;18.59;48.91;102571.88;487445;28;1021;-65
2021/04/16 00:16:15;;;;;;;4.35;1.55;;;;;;;18.58;49.17;102576.47;487371;28;854;-65
2021/04/16 00:16:29;;;;;;;2.88;1.50;;;;;;;18.58;49.21;102570.19;486042;28;41819;-65
2021/04/16 00:16:44;;;;;;;3.20;1.60;;;;;;;18.59;49.19;102571.88;487457;28;843;-65
2021/04/16 00:16:59;;;;;;;2.97;1.47;;;;;;;18.58;49.22;102572.88;487497;28;890;-65
2021/04/16 00:17:13;;;;;;;4.22;1.50;;;;;;;18.58;48.98;102573.75;489078;28;1215;-65
2021/04/16 00:17:28;;;;;;;4.33;1.63;;;;;;;18.58;49.39;102570.19;489385;28;814;-64
2021/04/16 00:17:42;;;;;;;2.97;1.53;;;;;;;18.58;49.22;102573.75;489325;28;809;-65
2021/04/16 00:17:57;;;;;;;2.90;1.50;;;;;;;18.58;49.20;102565.59;489141;28;858;-65
2021/04/16 00:18:14;;;;;;;2.97;1.50;;;;;;;18.56;49.06;102567.63;489342;28;1034;-65
2021/04/16 00:18:30;;;;;;;4.00;1.70;;;;;;;18.58;49.13;102571.03;488729;28;19784;-65
2021/04/16 00:18:45;;;;;;;3.65;1.63;;;;;;;18.56;49.00;102569.47;489173;28;823;-65
2021/04/16 00:19:00;;;;;;;2.78;1.48;;;;;;;18.56;49.08;102567.63;488930;28;1227;-65
2021/04/16 00:19:14;;;;;;;3.17;1.60;;;;;;;18.57;48.94;102565.75;489200;28;850;-65
2021/04/16 00:19:29;;;;;;;3.95;1.65;;;;;;;18.57;49.26;102563.03;489107;28;917;-64
2021/04/16 00:19:43;;;;;;;3.37;1.60;;;;;;;18.56;49.11;102570.31;489381;28;798;-65
2021/04/16 00:19:57;;;;;;;3.35;1.58;;;;;;;18.55;49.24;102571.31;489425;28;1040;-65
2021/04/16 00:20:17;;;;;;;4.23;1.70;;;;;;;18.56;49.12;102573.03;489376;28;807;-64
2021/04/16 00:20:32;;;;;;;3.10;1.65;;;;;;;18.54;49.27;102569.59;486692;28;66803;-65
2021/04/16 00:20:46;;;;;;;3.93;1.60;;;;;;;18.56;48.91;102566.75;489305;28;910;-65
2021/04/16 00:21:01;;;;;;;4.60;1.70;;;;;;;18.55;49.00;102567.75;489355;28;835;-65
2021/04/16 00:21:16;;;;;;;4.40;1.80;;;;;;;18.55;49.06;102567.75;489088;28;941;-64
2021/04/16 00:21:31;;;;;;;4.05;1.75;;;;;;;18.56;48.86;102564.03;489364;28;898;-65
2021/04/16 00:21:45;;;;;;;3.95;1.70;;;;;;;18.55;49.13;102562.34;489382;28;895;-65
2021/04/16 00:21:59;;;;;;;3.80;1.67;;;;;;;18.55;49.09;102567.75;489192;28;858;-65
2021/04/16 00:22:14;;;;;;;3.23;1.60;;;;;;;18.55;48.53;102565.03;489029;28;1216;-64
2021/04/16 00:22:28;;;;;;;3.97;1.73;;;;;;;18.55;49.14;102570.47;489304;28;910;-65
2021/04/16 00:22:42;;;;;;;4.10;1.60;;;;;;;18.54;49.23;102568.75;489257;28;985;-65
2021/04/16 00:22:57;;;;;;;3.30;1.40;;;;;;;18.54;48.88;102561.47;489400;28;1024;-65
2021/04/16 00:23:11;;;;;;;3.33;1.60;;;;;;;18.53;48.98;102570.59;489347;28;1063;-65
2021/04/16 00:23:27;;;;;;;3.13;1.50;;;;;;;18.54;48.57;102571.47;489304;28;913;-65
2021/04/16 00:23:41;;;;;;;2.88;1.48;;;;;;;18.53;49.05;102573.31;489145;28;937;-65
2021/04/16 00:23:56;;;;;;;3.03;1.55;;;;;;;18.53;49.12;102558.91;489214;28;1175;-65
2021/04/16 00:24:12;;;;;;;3.40;1.60;;;;;;;18.53;49.11;102570.59;489350;28;882;-65
2021/04/16 00:24:27;;;;;;;4.47;1.67;;;;;;;18.53;48.53;102564.34;488968;28;1013;-65
2021/04/16 00:24:41;;;;;;;5.00;1.70;;;;;;;18.53;48.96;102554.34;489368;28;920;-65
2021/04/16 00:24:55;;;;;;;5.13;1.70;;;;;;;18.53;49.16;102565.19;489145;28;902;-65
2021/04/16 00:25:17;;;;;;;4.85;1.65;;;;;;;18.53;49.00;102569.75;489073;28;1037;-65
2021/04/16 00:25:33;;;;;;;4.05;1.70;;;;;;;18.52;48.88;102565.34;484872;28;67082;-65
2021/04/16 00:25:48;;;;;;;3.08;1.60;;;;;;;18.53;48.26;102569.75;488069;28;1244;-65
2021/04/16 00:26:03;;;;;;;3.10;1.60;;;;;;;18.52;48.42;102558.06;488713;28;1975;-65
2021/04/16 00:26:18;;;;;;;2.55;1.50;;;;;;;18.53;48.90;102569.75;487221;28;1092;-65
2021/04/16 00:26:32;;;;;;;2.77;1.57;;;;;;;18.52;49.31;102568.03;486716;28;929;-65
2021/04/16 00:26:46;;;;;;;3.58;1.70;;;;;;;18.52;48.79;102566.19;487245;28;846;-65
2021/04/16 00:27:01;;;;;;;3.93;1.70;;;;;;;18.52;48.94;102559.91;487562;28;842;-65
2021/04/16 00:27:15;;;;;;;3.90;1.70;;;;;;;18.52;49.00;102559.91;487437;28;859;-65
2021/04/16 00:27:30;;;;;;;5.27;1.63;;;;;;;18.52;49.14;102562.63;488656;28;1267;-64
2021/04/16 00:27:44;;;;;;;4.30;1.60;;;;;;;18.51;49.08;102561.75;489166;28;1043;-64
2021/04/16 00:28:00;;;;;;;3.63;1.60;;;;;;;18.51;49.25;102559.06;489381;28;1030;-65
2021/04/16 00:28:15;;;;;;;4.05;1.60;;;;;;;18.51;49.15;102559.06;489343;28;950;-65
2021/04/16 00:28:30;;;;;;;3.47;1.43;;;;;;;18.51;48.96;102561.75;488976;28;948;-65
2021/04/16 00:28:44;;;;;;;3.30;1.50;;;;;;;18.51;49.02;102559.06;489333;28;1001;-65
2021/04/16 00:28:58;;;;;;;2.65;1.63;;;;;;;18.50;49.09;102558.19;489380;28;894;-65
2021/04/16 00:29:13;;;;;;;3.03;1.60;;;;;;;18.51;49.19;102564.47;489224;28;1274;-65
2021/04/16 00:29:27;;;;;;;3.60;1.70;;;;;;;18.52;49.30;102566.19;487353;28;1837;-65
2021/04/16 00:29:42;;;;;;;4.20;1.80;;;;;;;18.51;49.21;102561.75;486983;28;906;-65
2021/04/16 00:29:56;;;;;;;3.85;1.70;;;;;;;18.51;48.82;102559.06;487094;28;1250;-65
2021/04/16 00:30:12;;;;;;;2.83;1.60;;;;;;;18.50;49.00;102560.06;487248;28;988;-65
2021/04/16 00:30:54;;;;;;;2.63;1.60;;;;;;;18.52;48.78;102558.06;487089;28;913;-65
2021/04/16 00:31:29;;;;;;;3.08;1.50;;;;;;;18.52;49.23;102558.06;482826;28;65186;-65
2021/04/16 00:31:55;;;;;;;5.05;1.60;;;;;;;18.52;49.27;102562.63;485206;28;65913;-65
2021/04/16 00:32:09;;;;;;;3.80;1.52;;;;;;;18.50;49.42;102552.78;485114;28;67309;-65
2021/04/16 00:32:23;;;;;;;3.17;1.43;;;;;;;18.52;49.39;102554.47;487436;28;1001;-65
2021/04/16 00:32:38;;;;;;;3.42;1.52;;;;;;;18.51;49.29;102561.75;488732;28;1352;-65
2021/04/16 00:32:52;;;;;;;3.37;1.50;;;;;;;18.52;49.30;102557.19;489360;28;856;-65
2021/04/16 00:33:07;;;;;;;3.13;1.48;;;;;;;18.52;49.00;102560.75;489388;28;1039;-65
2021/04/16 00:33:22;;;;;;;3.47;1.60;;;;;;;18.53;49.36;102557.06;489350;28;1194;-65
2021/04/16 00:33:37;;;;;;;3.60;1.60;;;;;;;18.52;49.56;102552.63;489206;28;946;-65
2021/04/16 00:33:52;;;;;;;3.53;1.70;;;;;;;18.52;49.30;102554.47;488871;28;917;-65
2021/04/16 00:34:07;;;;;;;4.28;1.63;;;;;;;18.52;49.29;102558.06;489368;28;1611;-65
2021/04/16 00:34:24;;;;;;;4.20;1.53;;;;;;;18.53;49.38;102556.19;488948;28;1254;-65
2021/04/16 00:34:38;;;;;;;3.08;1.60;;;;;;;18.51;49.26;102550.91;489331;28;874;-65
2021/04/16 00:34:52;;;;;;;3.33;1.60;;;;;;;18.52;49.10;102558.06;489339;28;791;-65
2021/04/16 00:35:09;;;;;;;2.92;1.48;;;;;;;18.51;49.70;102553.63;489117;28;863;-65
2021/04/16 00:35:23;;;;;;;2.47;1.45;;;;;;;18.52;49.62;102555.34;489211;28;902;-64
2021/04/16 00:35:38;;;;;;;3.35;1.60;;;;;;;18.52;49.39;102557.19;489006;28;918;-65
2021/04/16 00:35:52;;;;;;;2.97;1.50;;;;;;;18.50;49.29;102555.47;488483;28;1106;-65
2021/04/16 00:36:07;;;;;;;2.80;1.40;;;;;;;18.51;49.47;102553.63;489112;28;867;-64
2021/04/16 00:36:23;;;;;;;3.97;1.70;;;;;;;18.51;49.62;102556.34;489195;28;981;-65
2021/04/16 00:36:37;;;;;;;4.63;1.90;;;;;;;18.53;49.68;102558.91;489099;28;934;-65
2021/04/16 00:36:54;;;;;;;4.47;1.80;;;;;;;18.52;49.60;102558.06;488776;28;1064;-65
2021/04/16 00:37:09;;;;;;;4.03;1.70;;;;;;;18.51;49.44;102553.63;489166;28;934;-65
2021/04/16 00:37:23;;;;;;;2.90;1.63;;;;;;;18.50;49.31;102555.47;489200;28;946;-65
2021/04/16 00:37:37;;;;;;;2.75;1.55;;;;;;;18.50;49.44;102555.47;488869;28;1072;-65
2021/04/16 00:37:52;;;;;;;3.10;1.63;;;;;;;18.50;49.48;102555.47;489362;28;811;-65
2021/04/16 00:38:08;;;;;;;4.45;1.80;;;;;;;18.50;49.66;102551.91;489296;28;887;-65
2021/04/16 00:38:23;;;;;;;4.82;1.60;;;;;;;18.50;49.73;102551.91;489133;28;916;-65
2021/04/16 00:38:38;;;;;;;3.75;1.58;;;;;;;18.49;49.23;102555.63;488965;28;985;-65
2021/04/16 00:38:53;;;;;;;3.03;1.45;;;;;;;18.50;49.16;102551.91;489130;28;1029;-65
2021/04/16 00:39:07;;;;;;;2.85;1.40;;;;;;;18.48;49.40;102557.47;489011;28;1028;-65
2021/04/16 00:39:23;;;;;;;3.00;1.60;;;;;;;18.48;49.47;102549.34;488145;28;1251;-65
2021/04/16 00:39:38;;;;;;;2.63;1.50;;;;;;;18.49;48.97;102552.91;489146;28;813;-64
2021/04/16 00:39:52;;;;;;;3.33;1.50;;;;;;;18.48;49.63;102554.78;489203;28;870;-64
2021/04/16 00:40:11;;;;;;;3.83;1.60;;;;;;;18.48;49.25;102553.91;488954;28;861;-64
2021/04/16 00:40:30;;;;;;;3.88;1.60;;;;;;;18.46;49.61;102551.34;487587;28;42831;-64
2021/04/16 00:40:48;;;;;;;3.67;1.70;;;;;;;18.46;48.97;102554.06;487693;28;41439;-64
2021/04/16 00:41:06;;;;;;;4.47;1.80;;;;;;;18.46;49.24;102551.34;488311;28;18752;-64
2021/04/16 00:41:24;;;;;;;4.45;1.63;;;;;;;18.46;49.05;102559.47;488244;28;18582;-65
2021/04/16 00:41:39;;;;;;;3.30;1.45;;;;;;;18.46;49.29;102553.22;488445;28;19056;-65
2021/04/16 00:41:54;;;;;;;3.33;1.50;;;;;;;18.45;48.91;102557.78;489357;28;976;-65
2021/04/16 00:42:08;;;;;;;3.33;1.60;;;;;;;18.46;49.17;102550.50;489305;28;920;-64
2021/04/16 00:42:23;;;;;;;3.23;1.60;;;;;;;18.46;49.19;102555.91;489381;28;915;-64
2021/04/16 00:42:37;;;;;;;3.45;1.60;;;;;;;18.44;49.11;102552.50;489141;28;1091;-65
2021/04/16 00:42:54;;;;;;;4.80;1.60;;;;;;;18.45;48.81;102555.06;487141;28;1404;-65
2021/04/16 00:43:11;;;;;;;4.20;1.50;;;;;;;18.44;48.58;102553.34;487151;28;945;-65
2021/04/16 00:43:28;;;;;;;3.53;1.42;;;;;;;18.44;48.75;102550.63;487307;28;914;-65
2021/04/16 00:43:43;;;;;;;4.55;1.60;;;;;;;18.44;49.11;102550.63;487260;28;951;-65
2021/04/16 00:43:57;;;;;;;3.80;1.60;;;;;;;18.44;49.15;102552.50;487344;28;930;-65
2021/04/16 00:44:12;;;;;;;3.22;1.58;;;;;;;18.44;49.01;102558.78;487221;28;889;-65
2021/04/16 00:44:26;;;;;;;3.57;1.50;;;;;;;18.44;49.03;102556.06;488062;28;1118;-65
2021/04/16 00:44:41;;;;;;;3.15;1.50;;;;;;;18.44;49.48;102550.63;489047;28;930;-65
2021/04/16 00:44:55;;;;;;;2.93;1.50;;;;;;;18.44;49.40;102556.06;489212;28;977;-65
2021/04/16 00:45:11;;;;;;;3.40;1.50;;;;;;;18.43;49.22;102557.06;489331;28;894;-65
2021/04/16 00:45:28;;;;;;;2.75;1.40;;;;;;;18.44;49.31;102558.78;489282;28;1033;-65
2021/04/16 00:45:43;;;;;;;2.17;1.30;;;;;;;18.44;49.45;102555.22;489082;28;925;-65
2021/04/16 00:46:23;;;;;;;2.80;1.50;;;;;;;18.43;49.06;102556.22;488965;28;1969;-65
2021/04/16 00:46:59;;;;;;;3.50;1.60;;;;;;;18.42;48.97;102555.34;485286;28;65214;-65
2021/04/16 00:47:17;;;;;;;3.92;1.52;;;;;;;18.44;48.91;102555.22;485082;28;66429;-65
2021/04/16 00:47:32;;;;;;;2.83;1.50;;;;;;;18.43;49.07;102554.34;486828;28;18709;-65
2021/04/16 00:47:47;;;;;;;2.55;1.50;;;;;;;18.44;49.17;102552.50;487617;28;1306;-65
2021/04/16 00:48:05;;;;;;;2.45;1.50;;;;;;;18.44;49.00;102553.34;489297;28;927;-65
2021/04/16 00:48:33;;;;;;;3.42;1.58;;;;;;;18.46;48.92;102556.78;488294;28;19377;-65
2021/04/16 00:48:58;;;;;;;2.63;1.40;;;;;;;18.47;49.36;102558.47;486705;28;65495;-65
2021/04/16 00:49:21;;;;;;;3.13;1.65;;;;;;;18.48;49.83;102562.06;486869;28;65116;-65
2021/04/16 00:49:45;;;;;;;3.45;1.70;;;;;;;18.47;49.42;102558.47;487068;28;65780;-64
2021/04/16 00:50:09;;;;;;;2.88;1.60;;;;;;;18.48;49.48;102557.47;486723;28;64353;-65
2021/04/16 00:50:51;;;;;;;2.95;1.65;;;;;;;18.49;49.21;102556.47;486826;28;66812;-65
2021/04/16 00:51:12;;;;;;;3.78;1.70;;;;;;;18.49;49.01;102561.06;484427;28;65256;-65
2021/04/16 00:51:32;;;;;;;3.10;1.60;;;;;;;18.49;49.25;102555.63;486590;28;68604;-65
2021/04/16 00:51:50;;;;;;;2.63;1.60;;;;;;;18.48;48.97;102556.63;486752;28;66707;-64
2021/04/16 00:52:07;;;;;;;2.85;1.63;;;;;;;18.50;48.86;102557.34;488710;28;20656;-65
2021/04/16 00:52:28;;;;;;;2.45;1.55;;;;;;;18.50;49.00;102557.34;489118;28;910;-65
2021/04/16 00:52:43;;;;;;;2.95;1.58;;;;;;;18.50;48.75;102563.63;486215;28;88418;-65
2021/04/16 00:53:00;;;;;;;3.20;1.70;;;;;;;18.49;48.96;102550.19;489285;28;1033;-65
2021/04/16 00:53:17;;;;;;;2.83;1.67;;;;;;;18.50;48.90;102552.78;488362;28;20731;-64
2021/04/16 00:53:33;;;;;;;3.15;1.50;;;;;;;18.50;48.94;102551.91;489040;28;1288;-65
2021/04/16 00:53:48;;;;;;;3.13;1.50;;;;;;;18.50;49.25;102560.91;489239;28;1049;-64
2021/04/16 00:54:05;;;;;;;3.10;1.48;;;;;;;18.50;49.63;102560.91;489087;28;906;-64
2021/04/16 00:54:24;;;;;;;3.15;1.50;;;;;;;18.51;48.83;102553.63;489304;28;1013;-65
2021/04/16 00:54:42;;;;;;;3.70;1.48;;;;;;;18.52;49.18;102566.19;487135;28;66820;-65
2021/04/16 00:54:57;;;;;;;3.42;1.60;;;;;;;18.53;49.15;102557.06;488416;28;18754;-65
2021/04/16 00:55:12;;;;;;;3.00;1.60;;;;;;;18.52;48.86;102560.75;489124;28;1291;-65
2021/04/16 00:55:27;;;;;;;3.67;1.60;;;;;;;18.54;49.20;102552.47;489361;28;950;-65
2021/04/16 00:55:42;;;;;;;3.25;1.40;;;;;;;18.56;48.74;102550.47;489065;28;986;-64
2021/04/16 00:55:57;;;;;;;2.13;1.40;;;;;;;18.58;48.76;102556.63;488827;28;1040;-63
2021/04/16 00:56:12;;;;;;;2.78;1.55;;;;;;;18.61;48.53;102553.66;489036;28;1020;-66
2021/04/16 00:56:28;;;;;;;4.10;1.60;;;;;;;18.60;48.93;102554.66;488744;28;949;-67
2021/04/16 00:56:43;;;;;;;4.00;1.55;;;;;;;18.66;48.99;102551.31;487384;28;1124;-66
2021/04/16 00:56:58;;;;;;;4.05;1.60;;;;;;;18.66;49.07;102554.88;487238;28;847;-65
2021/04/16 00:57:13;;;;;;;4.03;1.50;;;;;;;18.68;48.84;102555.59;487382;28;891;-65
2021/04/16 00:57:28;;;;;;;3.83;1.60;;;;;;;18.68;49.26;102561.03;487434;28;949;-65
2021/04/16 00:57:42;;;;;;;3.55;1.55;;;;;;;18.70;49.33;102561.72;487272;28;922;-65
2021/04/16 00:57:57;;;;;;;2.33;1.30;;;;;;;18.72;49.58;102556.16;487335;28;1025;-64
2021/04/16 00:58:12;;;;;;;2.13;1.30;;;;;;;18.71;49.65;102551.75;487465;28;886;-64
2021/04/16 00:58:30;;;;;;;2.60;1.40;;;;;;;18.71;48.96;102555.31;487586;28;1141;-64
2021/04/16 00:58:44;;;;;;;4.65;1.60;;;;;;;18.72;49.63;102559.72;488697;28;18751;-64
2021/04/16 00:58:59;;;;;;;4.83;1.50;;;;;;;18.72;49.51;102553.44;489050;28;898;-65
2021/04/16 00:59:15;;;;;;;4.13;1.45;;;;;;;18.71;49.17;102552.59;489306;28;826;-65
2021/04/16 00:59:33;;;;;;;5.40;1.60;;;;;;;18.71;48.66;102552.59;489293;28;882;-64
2021/04/16 00:59:52;;;;;;;4.38;1.45;;;;;;;18.68;48.52;102544.75;488414;28;18954;-65
2021/04/16 01:00:08;;;;;;;4.00;1.40;;;;;;;18.72;48.84;102548.03;487856;28;42730;-65
2021/04/16 01:00:25;;;;;;;2.70;1.40;;;;;;;18.71;49.53;102549.88;487302;28;1136;-65
2021/04/16 01:00:42;;;;;;;2.35;1.50;;;;;;;18.71;49.93;102549.88;487436;28;960;-65
2021/04/16 01:01:00;;;;;;;4.80;1.50;;;;;;;18.72;49.98;102551.59;487343;28;877;-66
2021/04/16 01:01:14;;;;;;;5.85;1.38;;;;;;;18.71;50.06;102551.75;486737;28;19022;-66
2021/04/16 01:01:29;;;;;;;4.53;1.50;;;;;;;18.71;49.93;102546.31;487358;28;1017;-66
2021/04/16 01:01:43;;;;;;;4.90;1.53;;;;;;;18.72;49.73;102553.44;487357;28;858;-65
2021/04/16 01:02:00;;;;;;;4.00;1.50;;;;;;;18.71;50.05;102546.31;488475;28;1196;-66
2021/04/16 01:02:15;;;;;;;3.70;1.63;;;;;;;18.70;49.86;102550.88;488928;28;1357;-66
2021/04/16 01:02:30;;;;;;;3.17;1.60;;;;;;;18.71;50.05;102554.44;489344;28;918;-66
2021/04/16 01:02:45;;;;;;;2.92;1.40;;;;;;;18.70;50.22;102542.75;489315;28;866;-65
2021/04/16 01:03:01;;;;;;;4.37;1.63;;;;;;;18.70;50.13;102550.88;489022;28;999;-65
2021/04/16 01:03:15;;;;;;;4.88;1.65;;;;;;;18.71;50.10;102554.44;489272;28;989;-65
2021/04/16 01:03:30;;;;;;;4.70;1.43;;;;;;;18.71;50.14;102558.03;488801;28;958;-65
2021/04/16 01:03:45;;;;;;;3.65;1.30;;;;;;;18.70;50.15;102550.03;489109;28;1107;-65
2021/04/16 01:03:59;;;;;;;3.57;1.50;;;;;;;18.70;50.12;102552.75;489123;28;1113;-65
2021/04/16 01:04:14;;;;;;;4.32;1.60;;;;;;;18.71;49.91;102551.75;489274;28;890;-64
2021/04/16 01:04:32;;;;;;;3.17;1.52;;;;;;;18.70;50.17;102548.16;489364;28;854;-65
2021/04/16 01:04:46;;;;;;;3.70;1.50;;;;;;;18.70;50.58;102553.59;488999;28;1221;-65
2021/04/16 01:05:00;;;;;;;3.65;1.40;;;;;;;18.70;50.28;102548.16;489234;28;890;-65
2021/04/16 01:05:16;;;;;;;3.60;1.37;;;;;;;18.70;50.41;102550.88;489155;28;1227;-65
2021/04/16 01:05:31;;;;;;;4.28;1.50;;;;;;;18.69;50.32;102546.47;488883;28;973;-66
2021/04/16 01:05:45;;;;;;;3.40;1.60;;;;;;;18.70;49.86;102550.03;489255;28;1040;-65
2021/04/16 01:06:05;;;;;;;3.33;1.53;;;;;;;18.70;50.33;102550.88;488725;28;1965;-65
2021/04/16 01:06:21;;;;;;;3.00;1.30;;;;;;;18.70;50.73;102553.59;486137;28;66944;-65
2021/04/16 01:06:36;;;;;;;3.03;1.50;;;;;;;18.71;50.48;102549.88;487396;28;943;-65
2021/04/16 01:06:51;;;;;;;4.13;1.63;;;;;;;18.71;50.53;102552.59;487366;28;795;-65
2021/04/16 01:07:09;;;;;;;3.95;1.67;;;;;;;18.70;50.35;102556.31;488467;28;1275;-66
2021/04/16 01:07:23;;;;;;;3.47;1.65;;;;;;;18.71;50.53;102557.16;488678;28;18532;-66
2021/04/16 01:07:38;;;;;;;3.50;1.50;;;;;;;18.70;50.56;102548.16;489357;28;775;-66
2021/04/16 01:07:52;;;;;;;2.78;1.50;;;;;;;18.70;50.46;102550.88;489110;28;954;-66
2021/04/16 01:08:08;;;;;;;2.90;1.50;;;;;;;18.69;50.25;102549.16;489161;28;906;-66
2021/04/16 01:08:22;;;;;;;3.60;1.52;;;;;;;18.70;50.03;102552.75;489245;28;916;-66
2021/04/16 01:08:38;;;;;;;4.43;1.40;;;;;;;18.71;49.96;102547.16;489289;28;870;-66
2021/04/16 01:08:53;;;;;;;3.83;1.48;;;;;;;18.70;50.34;102553.59;487422;28;938;-66
2021/04/16 01:09:09;;;;;;;2.90;1.50;;;;;;;18.70;50.35;102550.88;487405;28;1182;-66
2021/04/16 01:09:24;;;;;;;3.72;1.40;;;;;;;18.71;50.33;102546.31;487275;28;961;-66
2021/04/16 01:09:39;;;;;;;4.15;1.48;;;;;;;18.69;50.45;102549.16;487444;28;903;-66
2021/04/16 01:09:53;;;;;;;3.00;1.50;;;;;;;18.70;50.27;102550.88;487361;28;883;-66
2021/04/16 01:10:09;;;;;;;3.00;1.43;;;;;;;18.70;50.23;102550.88;487333;28;882;-66
2021/04/16 01:10:23;;;;;;;4.03;1.60;;;;;;;18.70;50.46;102550.03;487257;28;1056;-66
2021/04/16 01:10:38;;;;;;;5.17;1.80;;;;;;;18.70;50.55;102555.44;487337;28;918;-66
2021/04/16 01:10:52;;;;;;;4.47;1.55;;;;;;;18.70;50.60;102547.31;486848;28;1009;-66
2021/04/16 01:11:07;;;;;;;2.97;1.40;;;;;;;18.69;50.47;102546.47;487302;28;938;-66
2021/04/16 01:11:22;;;;;;;2.70;1.57;;;;;;;18.71;50.47;102549.88;487435;28;818;-66
2021/04/16 01:11:37;;;;;;;3.55;1.63;;;;;;;18.70;50.32;102548.16;487388;28;918;-66
2021/04/16 01:11:51;;;;;;;4.03;1.60;;;;;;;18.71;50.42;102557.16;487347;28;1234;-66
2021/04/16 01:12:08;;;;;;;3.03;1.60;;;;;;;18.70;50.39;102550.03;487954;28;1084;-66
2021/04/16 01:12:23;;;;;;;3.00;1.60;;;;;;;18.70;50.26;102542.75;489097;28;1167;-66
2021/04/16 01:12:38;;;;;;;3.00;1.50;;;;;;;18.70;50.31;102547.31;488486;28;1067;-66
2021/04/16 01:12:52;;;;;;;4.27;1.50;;;;;;;18.71;50.65;102551.75;488997;28;840;-67
2021/04/16 01:13:07;;;;;;;5.35;1.67;;;;;;;18.70;50.63;102550.03;488287;28;1029;-66
2021/04/16 01:13:23;;;;;;;4.93;1.80;;;;;;;18.70;50.61;102548.16;488143;28;1060;-65
2021/04/16 01:13:39;;;;;;;4.47;1.70;;;;;;;18.71;50.33;102547.16;487349;28;1156;-66
2021/04/16 01:13:54;;;;;;;3.97;1.60;;;;;;;18.70;50.84;102550.88;488767;28;1232;-66
2021/04/16 01:14:10;;;;;;;3.28;1.40;;;;;;;18.71;50.26;102551.75;487378;28;1342;-66
2021/04/16 01:14:24;;;;;;;2.38;1.30;;;;;;;18.71;50.36;102549.88;487064;28;1322;-66
2021/04/16 01:14:41;;;;;;;2.30;1.27;;;;;;;18.71;50.29;102546.31;488537;28;1235;-66
2021/04/16 01:15:14;;;;;;;2.42;1.30;;;;;;;18.71;50.40;102547.16;487141;28;917;-65
2021/04/16 01:15:33;;;;;;;2.97;1.40;;;;;;;18.71;50.47;102549.03;485206;28;66241;-66
2021/04/16 01:16:11;;;;;;;2.63;1.30;;;;;;;18.71;50.47;102549.88;486019;28;42716;-65
2021/04/16 01:16:29;;;;;;;2.83;1.48;;;;;;;18.70;50.55;102548.16;485471;28;33952;-66
2021/04/16 01:16:44;;;;;;;2.85;1.50;;;;;;;18.70;50.40;102545.47;485017;28;66796;-66
2021/04/16 01:16:59;;;;;;;2.85;1.60;;;;;;;18.71;50.30;102543.59;487448;28;889;-66
2021/04/16 01:17:15;;;;;;;3.00;1.50;;;;;;;18.71;50.40;102544.47;488094;28;1090;-66
2021/04/16 01:17:30;;;;;;;2.80;1.50;;;;;;;18.71;50.58;102544.47;489285;28;910;-66
2021/04/16 01:17:46;;;;;;;2.47;1.38;;;;;;;18.72;50.39;102542.59;489081;28;849;-65